createdAt,value
2017-10-21T00:00:31.967Z,4.5
2017-10-21T00:01:33.682Z,3.8
2017-10-21T00:02:35.365Z,3.4
2017-10-21T00:03:37.000Z,3.4
2017-10-21T00:04:38.651Z,3.5
2017-10-21T00:05:40.309Z,3.8
2017-10-21T00:06:41.965Z,4.0
2017-10-21T00:07:43.617Z,3.9
2017-10-21T00:08:45.268Z,4.2
2017-10-21T00:09:46.911Z,4.2
2017-10-21T00:10:48.627Z,3.9
2017-10-21T00:11:50.285Z,4.1
2017-10-21T00:12:51.938Z,4.4
2017-10-21T00:13:53.644Z,5.0
2017-10-21T00:14:55.305Z,4.7
2017-10-21T00:15:56.968Z,4.9
2017-10-21T00:16:58.610Z,4.8
2017-10-21T00:18:00.256Z,4.6
2017-10-21T00:19:01.907Z,5.6
2017-10-21T00:20:03.623Z,5.0
2017-10-21T00:21:05.278Z,4.6
2017-10-21T00:22:06.942Z,4.8
2017-10-21T00:23:08.582Z,4.6
2017-10-21T00:24:10.241Z,4.6
2017-10-21T00:25:11.887Z,5.2
2017-10-21T00:26:13.549Z,4.7
2017-10-21T00:27:15.210Z,5.4
2017-10-21T00:28:18.040Z,5.1
2017-10-21T00:29:20.607Z,5.2
2017-10-21T00:30:22.280Z,5.0
2017-10-21T00:31:23.997Z,5.6
2017-10-21T00:32:25.641Z,4.6
2017-10-21T00:33:27.299Z,5.1
2017-10-21T00:34:28.952Z,5.9
2017-10-21T00:35:30.597Z,5.0
2017-10-21T00:36:32.237Z,5.3
2017-10-21T00:37:33.938Z,5.3
2017-10-21T00:38:35.605Z,5.3
2017-10-21T00:39:37.263Z,5.6
2017-10-21T00:40:38.907Z,4.8
2017-10-21T00:41:40.556Z,5.1
2017-10-21T00:42:42.213Z,4.8
2017-10-21T00:43:43.860Z,5.2
2017-10-21T00:44:45.521Z,5.0
2017-10-21T00:45:47.166Z,4.8
2017-10-21T00:46:48.846Z,5.4
2017-10-21T00:47:50.488Z,5.0
2017-10-21T00:48:52.134Z,4.8
2017-10-21T00:49:53.794Z,5.0
2017-10-21T00:50:55.451Z,4.8
2017-10-21T00:51:57.093Z,4.9
2017-10-21T00:52:58.822Z,4.6
2017-10-21T00:54:00.482Z,4.6
2017-10-21T00:55:02.198Z,4.6
2017-10-21T00:56:03.847Z,4.8
2017-10-21T00:57:05.502Z,4.7
2017-10-21T00:58:07.160Z,4.4
2017-10-21T00:59:08.824Z,4.4
2017-10-21T01:00:10.478Z,3.8
2017-10-21T01:01:12.153Z,4.6
2017-10-21T01:02:13.803Z,3.9
2017-10-21T01:03:15.499Z,4.5
2017-10-21T01:04:17.144Z,4.0
2017-10-21T01:05:18.795Z,3.8
2017-10-21T01:06:20.480Z,3.8
2017-10-21T01:07:22.128Z,4.1
2017-10-21T01:08:23.776Z,3.9
2017-10-21T01:09:25.473Z,4.2
2017-10-21T01:10:27.123Z,4.0
2017-10-21T01:11:28.772Z,4.0
2017-10-21T01:12:30.420Z,4.1
2017-10-21T01:13:32.065Z,3.9
2017-10-21T01:14:33.722Z,4.2
2017-10-21T01:15:35.392Z,4.0
2017-10-21T01:16:37.053Z,4.4
2017-10-21T01:17:38.712Z,4.7
2017-10-21T01:18:40.381Z,4.0
2017-10-21T01:19:42.025Z,3.8
2017-10-21T01:20:43.690Z,4.3
2017-10-21T01:21:45.357Z,4.4
2017-10-21T01:22:47.011Z,5.6
2017-10-21T01:23:48.667Z,4.3
2017-10-21T01:24:50.356Z,4.9
2017-10-21T01:25:52.004Z,5.2
2017-10-21T01:26:53.658Z,4.9
2017-10-21T01:27:55.316Z,5.0
2017-10-21T01:28:56.970Z,4.3
2017-10-21T01:29:58.645Z,4.6
2017-10-21T01:31:00.348Z,4.8
2017-10-21T01:32:01.996Z,5.0
2017-10-21T01:33:03.723Z,4.6
2017-10-21T01:34:05.423Z,4.8
2017-10-21T01:35:07.087Z,5.1
2017-10-21T01:36:08.744Z,4.8
2017-10-21T01:37:10.386Z,4.4
2017-10-21T01:38:12.046Z,5.1
2017-10-21T01:39:13.696Z,4.6
2017-10-21T01:40:15.350Z,4.1
2017-10-21T01:41:17.022Z,4.2
2017-10-21T01:42:18.671Z,4.1
2017-10-21T01:43:20.319Z,4.6
2017-10-21T01:44:21.996Z,4.7
2017-10-21T01:45:23.647Z,4.3
2017-10-21T01:46:25.326Z,5.1
2017-10-21T01:47:26.979Z,4.9
2017-10-21T01:48:28.627Z,4.6
2017-10-21T01:49:30.277Z,4.5
2017-10-21T01:50:31.929Z,4.7
2017-10-21T01:51:33.595Z,4.6
2017-10-21T01:52:35.245Z,4.3
2017-10-21T01:53:36.917Z,4.2
2017-10-21T01:54:38.569Z,4.5
2017-10-21T01:55:40.218Z,4.3
2017-10-21T02:01:41.101Z,5.0
2017-10-21T02:02:42.744Z,5.0
2017-10-21T02:03:44.392Z,4.1
2017-10-21T02:04:46.046Z,4.3
2017-10-21T02:05:47.693Z,4.4
2017-10-21T02:06:49.342Z,4.4
2017-10-21T02:07:51.007Z,3.9
2017-10-21T02:08:52.662Z,3.9
2017-10-21T02:09:54.312Z,4.6
2017-10-21T02:10:55.968Z,4.1
2017-10-21T02:11:57.617Z,4.2
2017-10-21T02:12:59.269Z,4.4
2017-10-21T02:14:00.924Z,4.3
2017-10-21T02:15:03.537Z,4.1
2017-10-21T02:16:05.192Z,4.3
2017-10-21T02:17:06.870Z,4.1
2017-10-21T02:18:08.517Z,3.5
2017-10-21T02:19:10.193Z,3.9
2017-10-21T02:20:11.845Z,4.1
2017-10-21T02:21:13.500Z,4.2
2017-10-21T02:22:15.163Z,3.8
2017-10-21T02:23:16.823Z,3.9
2017-10-21T02:24:18.474Z,4.0
2017-10-21T02:25:20.135Z,3.7
2017-10-21T02:26:21.860Z,3.6
2017-10-21T02:27:23.502Z,3.6
2017-10-21T02:28:25.177Z,4.1
2017-10-21T02:29:26.835Z,4.7
2017-10-21T02:30:28.484Z,4.0
2017-10-21T02:31:30.127Z,4.1
2017-10-21T02:32:31.779Z,3.6
2017-10-21T02:33:33.435Z,4.3
2017-10-21T02:34:35.085Z,4.3
2017-10-21T02:35:36.735Z,4.2
2017-10-21T02:36:38.383Z,3.5
2017-10-21T02:37:40.031Z,3.6
2017-10-21T02:38:41.677Z,4.3
2017-10-21T02:39:43.325Z,3.7
2017-10-21T02:40:44.973Z,3.4
2017-10-21T02:41:46.630Z,3.8
2017-10-21T02:42:48.284Z,3.4
2017-10-21T02:43:49.942Z,3.4
2017-10-21T02:44:51.594Z,3.4
2017-10-21T02:45:53.259Z,3.7
2017-10-21T02:46:54.909Z,4.4
2017-10-21T02:47:56.556Z,3.4
2017-10-21T02:48:58.204Z,3.5
2017-10-21T02:49:59.851Z,3.8
2017-10-21T02:51:01.496Z,3.5
2017-10-21T02:52:03.169Z,3.9
2017-10-21T02:53:04.822Z,4.6
2017-10-21T02:54:06.471Z,4.1
2017-10-21T02:55:08.148Z,4.0
2017-10-21T02:56:09.791Z,4.1
2017-10-21T02:57:11.441Z,4.0
2017-10-21T02:58:13.120Z,4.1
2017-10-21T02:59:14.765Z,4.4
2017-10-21T03:00:16.431Z,3.9
2017-10-21T03:01:18.082Z,4.2
2017-10-21T03:02:19.734Z,4.7
2017-10-21T03:03:21.389Z,4.2
2017-10-21T03:04:23.064Z,4.0
2017-10-21T03:05:24.750Z,3.6
2017-10-21T03:06:26.405Z,3.9
2017-10-21T03:07:28.053Z,3.9
2017-10-21T03:08:29.705Z,3.9
2017-10-21T03:09:31.356Z,3.8
2017-10-21T03:10:33.012Z,3.6
2017-10-21T03:11:34.775Z,4.0
2017-10-21T03:12:36.423Z,3.9
2017-10-21T03:13:38.084Z,4.3
2017-10-21T03:14:39.738Z,3.6
2017-10-21T03:15:41.386Z,3.5
2017-10-21T03:16:43.035Z,4.3
2017-10-21T03:17:44.736Z,3.7
2017-10-21T03:18:46.396Z,3.7
2017-10-21T03:19:48.058Z,4.0
2017-10-21T03:20:49.709Z,3.9
2017-10-21T03:21:51.357Z,4.0
2017-10-21T03:22:53.004Z,3.7
2017-10-21T03:23:54.683Z,3.8
2017-10-21T03:24:56.341Z,4.0
2017-10-21T03:25:57.987Z,4.0
2017-10-21T03:26:59.635Z,3.7
2017-10-21T03:28:01.305Z,3.7
2017-10-21T03:29:02.961Z,3.7
2017-10-21T03:30:04.608Z,3.4
2017-10-21T03:31:06.269Z,3.9
2017-10-21T03:32:08.022Z,3.5
2017-10-21T03:33:09.685Z,3.9
2017-10-21T03:34:11.335Z,3.8
2017-10-21T03:35:13.040Z,3.9
2017-10-21T03:36:14.691Z,3.8
2017-10-21T03:37:16.340Z,3.7
2017-10-21T03:38:17.991Z,4.1
2017-10-21T03:39:19.643Z,3.9
2017-10-21T03:40:21.297Z,3.5
2017-10-21T03:41:22.946Z,3.8
2017-10-21T03:42:24.671Z,3.3
2017-10-21T03:43:26.338Z,3.4
2017-10-21T03:44:27.986Z,3.6
2017-10-21T03:45:29.655Z,3.4
2017-10-21T03:46:31.317Z,3.7
2017-10-21T03:47:32.968Z,3.3
2017-10-21T03:48:34.627Z,3.4
2017-10-21T03:49:36.288Z,3.8
2017-10-21T03:50:37.959Z,4.1
2017-10-21T03:51:39.596Z,3.4
2017-10-21T03:52:41.250Z,3.6
2017-10-21T03:53:42.903Z,4.2
2017-10-21T03:54:44.553Z,4.3
2017-10-21T03:55:46.210Z,3.5
2017-10-21T03:56:47.858Z,3.6
2017-10-21T03:57:49.528Z,3.7
2017-10-21T03:58:51.191Z,4.5
2017-10-21T03:59:52.845Z,3.9
2017-10-21T04:00:54.496Z,4.2
2017-10-21T04:01:56.171Z,4.1
2017-10-21T04:02:57.815Z,4.2
2017-10-21T04:03:59.470Z,4.0
2017-10-21T04:05:01.120Z,3.7
2017-10-21T04:06:02.768Z,3.4
2017-10-21T04:07:04.425Z,4.1
2017-10-21T04:08:06.070Z,4.1
2017-10-21T04:09:07.725Z,4.3
2017-10-21T04:10:09.385Z,4.0
2017-10-21T04:11:11.062Z,4.4
2017-10-21T04:12:12.733Z,4.6
2017-10-21T04:13:14.376Z,4.8
2017-10-21T04:14:16.030Z,4.5
2017-10-21T04:15:17.682Z,4.6
2017-10-21T04:16:19.355Z,4.3
2017-10-21T04:17:21.002Z,5.0
2017-10-21T04:18:22.653Z,4.5
2017-10-21T04:19:24.314Z,4.5
2017-10-21T04:20:26.016Z,4.2
2017-10-21T04:21:27.669Z,4.3
2017-10-21T04:22:29.332Z,4.1
2017-10-21T04:23:30.994Z,4.5
2017-10-21T04:24:32.656Z,4.1
2017-10-21T04:25:34.304Z,4.4
2017-10-21T04:26:35.950Z,3.8
2017-10-21T04:27:37.629Z,3.5
2017-10-21T04:28:39.281Z,4.3
2017-10-21T04:29:40.974Z,4.0
2017-10-21T04:30:42.635Z,4.7
2017-10-21T04:31:44.290Z,4.2
2017-10-21T04:32:45.941Z,4.2
2017-10-21T04:33:47.591Z,4.2
2017-10-21T04:34:49.262Z,4.0
2017-10-21T04:35:50.904Z,4.4
2017-10-21T04:36:52.549Z,4.1
2017-10-21T04:37:54.220Z,4.3
2017-10-21T04:38:55.878Z,4.3
2017-10-21T04:39:57.537Z,3.9
2017-10-21T04:40:59.191Z,4.3
2017-10-21T04:42:00.834Z,3.9
2017-10-21T04:43:02.488Z,4.3
2017-10-21T04:44:04.150Z,4.1
2017-10-21T04:45:06.127Z,4.1
2017-10-21T04:46:07.776Z,4.5
2017-10-21T04:47:09.441Z,3.9
2017-10-21T04:48:11.093Z,4.1
2017-10-21T04:49:12.734Z,3.9
2017-10-21T04:50:14.377Z,3.6
2017-10-21T04:51:16.034Z,4.0
2017-10-21T04:52:17.701Z,3.9
2017-10-21T04:53:19.340Z,4.0
2017-10-21T04:54:20.993Z,3.6
2017-10-21T04:55:22.639Z,3.9
2017-10-21T04:56:24.286Z,4.0
2017-10-21T04:57:25.946Z,4.1
2017-10-21T04:58:27.610Z,4.9
2017-10-21T04:59:29.258Z,4.1
2017-10-21T05:00:30.908Z,4.6
2017-10-21T05:01:32.641Z,4.4
2017-10-21T05:02:34.294Z,4.9
2017-10-21T05:03:35.945Z,4.4
2017-10-21T05:04:37.595Z,4.6
2017-10-21T05:05:39.260Z,4.3
2017-10-21T05:06:40.918Z,3.7
2017-10-21T05:07:42.579Z,4.4
2017-10-21T05:08:44.237Z,4.4
2017-10-21T05:09:45.892Z,4.0
2017-10-21T05:10:47.536Z,4.9
2017-10-21T05:11:49.196Z,4.2
2017-10-21T05:12:50.850Z,4.5
2017-10-21T05:13:52.500Z,4.1
2017-10-21T05:14:54.152Z,4.5
2017-10-21T05:15:55.810Z,5.2
2017-10-21T05:16:57.458Z,4.8
2017-10-21T05:17:59.119Z,4.3
2017-10-21T05:19:00.802Z,4.8
2017-10-21T05:20:02.461Z,4.9
2017-10-21T05:21:04.129Z,5.2
2017-10-21T05:22:05.783Z,5.2
2017-10-21T05:23:07.480Z,5.0
2017-10-21T05:24:09.130Z,5.0
2017-10-21T05:25:10.780Z,5.3
2017-10-21T05:26:12.444Z,4.8
2017-10-21T05:27:14.098Z,4.6
2017-10-21T05:28:15.745Z,4.8
2017-10-21T05:29:17.402Z,4.1
2017-10-21T05:30:19.065Z,5.5
2017-10-21T05:31:20.732Z,4.8
2017-10-21T05:32:22.375Z,5.0
2017-10-21T05:33:24.034Z,5.4
2017-10-21T05:34:25.714Z,4.8
2017-10-21T05:35:27.351Z,4.8
2017-10-21T05:36:29.013Z,4.9
2017-10-21T05:37:30.664Z,4.3
2017-10-21T05:38:32.323Z,6.0
2017-10-21T05:39:33.982Z,4.6
2017-10-21T05:40:35.629Z,5.1
2017-10-21T05:41:37.281Z,5.2
2017-10-21T05:42:38.941Z,5.0
2017-10-21T05:43:40.593Z,4.7
2017-10-21T05:44:42.264Z,4.6
2017-10-21T05:45:43.918Z,4.8
2017-10-21T05:46:45.572Z,4.9
2017-10-21T05:47:47.229Z,4.9
2017-10-21T05:48:48.888Z,4.9
2017-10-21T05:49:50.542Z,5.7
2017-10-21T05:50:52.200Z,4.6
2017-10-21T05:51:53.859Z,5.0
2017-10-21T05:52:55.520Z,5.2
2017-10-21T05:53:57.175Z,4.7
2017-10-21T05:54:58.833Z,4.9
2017-10-21T06:01:16.337Z,4.3
2017-10-21T06:02:17.981Z,4.7
2017-10-21T06:03:19.628Z,5.0
2017-10-21T06:04:21.338Z,4.5
2017-10-21T06:05:22.995Z,5.1
2017-10-21T06:06:24.672Z,5.0
2017-10-21T06:07:26.330Z,5.1
2017-10-21T06:08:27.981Z,4.4
2017-10-21T06:09:29.635Z,5.0
2017-10-21T06:10:31.456Z,5.0
2017-10-21T06:11:33.115Z,4.8
2017-10-21T06:12:34.772Z,5.3
2017-10-21T06:13:36.508Z,5.7
2017-10-21T06:14:38.168Z,5.6
2017-10-21T06:15:39.827Z,5.6
2017-10-21T06:16:41.494Z,5.6
2017-10-21T06:17:43.153Z,5.5
2017-10-21T06:18:44.811Z,5.2
2017-10-21T06:19:46.482Z,5.5
2017-10-21T06:20:48.145Z,5.4
2017-10-21T06:21:49.929Z,5.8
2017-10-21T06:22:51.611Z,5.6
2017-10-21T06:23:53.338Z,5.7
2017-10-21T06:24:54.976Z,4.9
2017-10-21T06:25:56.636Z,5.6
2017-10-21T06:26:58.321Z,5.8
2017-10-21T06:28:00.023Z,5.1
2017-10-21T06:29:01.684Z,6.4
2017-10-21T06:30:03.346Z,6.2
2017-10-21T06:31:05.008Z,5.7
2017-10-21T06:32:06.663Z,6.7
2017-10-21T06:33:08.333Z,6.3
2017-10-21T06:34:09.990Z,6.2
2017-10-21T06:35:11.640Z,7.2
2017-10-21T06:36:13.295Z,6.2
2017-10-21T06:37:14.954Z,6.0
2017-10-21T06:38:16.616Z,6.0
2017-10-21T06:39:18.266Z,6.3
2017-10-21T06:40:19.921Z,7.0
2017-10-21T06:41:21.607Z,6.2
2017-10-21T06:42:23.265Z,5.9
2017-10-21T06:43:24.941Z,6.1
2017-10-21T06:44:26.598Z,6.3
2017-10-21T06:45:28.269Z,6.5
2017-10-21T06:46:29.935Z,6.8
2017-10-21T06:47:31.580Z,6.2
2017-10-21T06:48:33.261Z,6.2
2017-10-21T06:49:34.914Z,6.2
2017-10-21T06:50:36.574Z,6.1
2017-10-21T06:51:38.236Z,5.6
2017-10-21T06:52:39.897Z,5.3
2017-10-21T06:53:41.557Z,5.2
2017-10-21T06:54:43.212Z,5.2
2017-10-21T06:55:44.885Z,4.9
2017-10-21T06:56:46.550Z,4.4
2017-10-21T06:57:48.224Z,4.6
2017-10-21T06:58:49.884Z,4.4
2017-10-21T06:59:51.542Z,4.8
2017-10-21T07:00:53.193Z,4.5
2017-10-21T07:01:54.922Z,4.3
2017-10-21T07:02:56.588Z,4.3
2017-10-21T07:03:58.244Z,4.0
2017-10-21T07:04:59.901Z,4.6
2017-10-21T07:06:01.563Z,4.8
2017-10-21T07:07:03.222Z,4.7
2017-10-21T07:08:04.891Z,4.5
2017-10-21T07:09:06.543Z,5.3
2017-10-21T07:10:08.221Z,4.3
2017-10-21T07:11:09.896Z,5.1
2017-10-21T07:12:11.556Z,4.8
2017-10-21T07:13:13.212Z,5.2
2017-10-21T07:14:14.954Z,4.9
2017-10-21T07:15:16.629Z,4.8
2017-10-21T07:16:18.286Z,4.3
2017-10-21T07:17:19.945Z,4.2
2017-10-21T07:18:21.606Z,3.9
2017-10-21T07:19:23.289Z,4.3
2017-10-21T07:20:24.984Z,3.9
2017-10-21T07:21:26.638Z,4.1
2017-10-21T07:22:28.298Z,3.6
2017-10-21T07:23:29.974Z,4.3
2017-10-21T07:24:31.639Z,4.1
2017-10-21T07:25:33.302Z,4.3
2017-10-21T07:26:34.982Z,4.7
2017-10-21T07:27:36.658Z,4.7
2017-10-21T07:28:38.320Z,4.3
2017-10-21T07:29:39.984Z,4.6
2017-10-21T07:30:41.647Z,4.8
2017-10-21T07:31:43.339Z,5.8
2017-10-21T07:32:44.997Z,5.2
2017-10-21T07:33:46.678Z,4.9
2017-10-21T07:34:48.341Z,5.0
2017-10-21T07:35:50.001Z,4.8
2017-10-21T07:36:51.680Z,5.0
2017-10-21T07:37:53.356Z,5.1
2017-10-21T07:38:55.033Z,5.0
2017-10-21T07:39:56.721Z,5.5
2017-10-21T07:40:58.788Z,4.8
2017-10-21T07:42:00.444Z,4.9
2017-10-21T07:43:02.109Z,5.0
2017-10-21T07:44:03.786Z,5.1
2017-10-21T07:45:05.456Z,5.7
2017-10-21T07:46:07.151Z,5.8
2017-10-21T07:47:08.828Z,5.9
2017-10-21T07:48:10.526Z,5.4
2017-10-21T07:49:12.167Z,4.9
2017-10-21T07:50:13.838Z,5.4
2017-10-21T07:51:15.498Z,5.2
2017-10-21T07:52:17.175Z,5.0
2017-10-21T07:53:18.835Z,5.2
2017-10-21T07:54:20.542Z,5.0
2017-10-21T07:55:22.210Z,4.3
2017-10-21T07:56:23.870Z,4.5
2017-10-21T07:57:25.567Z,5.2
2017-10-21T07:58:27.238Z,4.7
2017-10-21T07:59:28.896Z,5.1
2017-10-21T08:00:30.558Z,5.2
2017-10-21T08:01:32.211Z,4.9
2017-10-21T08:02:33.876Z,5.0
2017-10-21T08:03:35.539Z,4.8
2017-10-21T08:04:37.202Z,4.9
2017-10-21T08:05:38.864Z,5.2
2017-10-21T08:06:40.564Z,5.2
2017-10-21T08:07:42.288Z,4.9
2017-10-21T08:08:43.953Z,4.3
2017-10-21T08:09:45.619Z,4.7
2017-10-21T08:10:47.473Z,4.8
2017-10-21T08:11:49.138Z,4.3
2017-10-21T08:12:50.800Z,4.5
2017-10-21T08:13:52.460Z,5.1
2017-10-21T08:14:54.135Z,5.3
2017-10-21T08:15:55.878Z,5.0
2017-10-21T08:16:57.531Z,4.7
2017-10-21T08:17:59.199Z,4.8
2017-10-21T08:19:00.875Z,5.0
2017-10-21T08:20:02.618Z,4.8
2017-10-21T08:21:04.287Z,5.2
2017-10-21T08:22:05.947Z,4.8
2017-10-21T08:23:07.704Z,5.4
2017-10-21T08:24:09.426Z,5.5
2017-10-21T08:25:11.164Z,6.0
2017-10-21T08:26:13.017Z,5.2
2017-10-21T08:27:14.944Z,5.7
2017-10-21T08:28:16.993Z,5.7
2017-10-21T08:29:18.952Z,5.4
2017-10-21T08:30:20.720Z,5.2
2017-10-21T08:31:22.384Z,5.5
2017-10-21T08:32:24.045Z,5.9
2017-10-21T08:33:25.701Z,5.1
2017-10-21T08:34:27.364Z,5.1
2017-10-21T08:35:29.034Z,6.2
2017-10-21T08:36:30.696Z,5.2
2017-10-21T08:37:32.356Z,6.2
2017-10-21T08:38:34.020Z,5.7
2017-10-21T08:39:35.684Z,6.0
2017-10-21T08:40:37.345Z,5.1
2017-10-21T08:41:39.028Z,6.0
2017-10-21T08:42:40.682Z,6.1
2017-10-21T08:43:42.342Z,6.2
2017-10-21T08:44:44.235Z,6.3
2017-10-21T08:45:45.897Z,6.4
2017-10-21T08:46:47.570Z,6.5
2017-10-21T08:47:49.270Z,6.6
2017-10-21T08:48:51.135Z,7.1
2017-10-21T08:49:52.764Z,7.4
2017-10-21T08:50:54.420Z,5.7
2017-10-21T08:51:56.103Z,6.6
2017-10-21T08:52:57.779Z,6.0
2017-10-21T08:53:59.454Z,5.8
2017-10-21T08:55:01.112Z,6.5
2017-10-21T08:56:02.802Z,6.1
2017-10-21T08:57:04.465Z,5.9
2017-10-21T08:58:06.125Z,5.9
2017-10-21T08:59:07.804Z,5.3
2017-10-21T09:00:09.467Z,6.9
2017-10-21T09:01:11.134Z,6.1
2017-10-21T09:02:12.900Z,8.0
2017-10-21T09:03:14.566Z,7.6
2017-10-21T09:04:16.232Z,7.7
2017-10-21T09:05:17.896Z,7.5
2017-10-21T09:06:19.565Z,8.4
2017-10-21T09:07:21.235Z,6.8
2017-10-21T09:08:22.905Z,7.8
2017-10-21T09:09:24.755Z,6.8
2017-10-21T09:10:26.452Z,7.1
2017-10-21T09:11:28.122Z,7.6
2017-10-21T09:12:29.887Z,8.3
2017-10-21T09:13:31.546Z,7.1
2017-10-21T09:14:33.212Z,7.9
2017-10-21T09:15:34.878Z,7.0
2017-10-21T09:16:36.530Z,7.6
2017-10-21T09:17:38.191Z,7.7
2017-10-21T09:18:39.859Z,7.7
2017-10-21T09:19:41.519Z,7.4
2017-10-21T09:20:43.186Z,8.0
2017-10-21T09:21:44.858Z,8.7
2017-10-21T09:22:46.571Z,8.3
2017-10-21T09:23:48.332Z,9.0
2017-10-21T09:24:50.000Z,8.7
2017-10-21T09:25:51.665Z,8.7
2017-10-21T09:26:53.322Z,8.6
2017-10-21T09:27:54.992Z,8.1
2017-10-21T09:28:56.671Z,8.7
2017-10-21T09:29:58.336Z,9.0
2017-10-21T09:31:00.004Z,8.9
2017-10-21T09:32:01.742Z,9.0
2017-10-21T09:33:03.399Z,9.4
2017-10-21T09:34:05.063Z,10.0
2017-10-21T09:35:06.728Z,9.2
2017-10-21T09:36:08.395Z,10.3
2017-10-21T09:37:10.079Z,10.9
2017-10-21T09:38:11.750Z,10.2
2017-10-21T09:39:13.472Z,9.4
2017-10-21T09:40:15.139Z,9.4
2017-10-21T09:41:16.793Z,9.4
2017-10-21T09:42:18.456Z,11.3
2017-10-21T09:43:20.139Z,10.4
2017-10-21T09:44:21.804Z,9.5
2017-10-21T09:45:23.513Z,9.8
2017-10-21T09:46:25.219Z,10.0
2017-10-21T09:47:26.888Z,10.3
2017-10-21T09:48:28.564Z,9.9
2017-10-21T09:49:30.224Z,9.4
2017-10-21T09:50:31.898Z,10.1
2017-10-21T09:51:33.632Z,10.3
2017-10-21T09:52:35.382Z,10.7
2017-10-21T09:53:37.054Z,10.1
2017-10-21T09:54:38.722Z,9.7
2017-10-21T09:55:40.404Z,9.0
2017-10-21T10:02:05.804Z,8.0
2017-10-21T10:03:07.465Z,9.4
2017-10-21T10:04:09.121Z,11.5
2017-10-21T10:05:10.785Z,10.2
2017-10-21T10:06:12.445Z,11.1
2017-10-21T10:07:14.110Z,10.1
2017-10-21T10:08:15.800Z,9.8
2017-10-21T10:09:17.460Z,10.4
2017-10-21T10:10:19.122Z,10.1
2017-10-21T10:11:20.903Z,10.2
2017-10-21T10:12:22.608Z,8.6
2017-10-21T10:13:24.270Z,9.8
2017-10-21T10:14:25.935Z,9.8
2017-10-21T10:15:27.587Z,9.1
2017-10-21T10:16:29.268Z,9.3
2017-10-21T10:17:30.920Z,10.8
2017-10-21T10:18:32.587Z,10.5
2017-10-21T10:19:34.242Z,11.3
2017-10-21T10:20:35.908Z,11.5
2017-10-21T10:21:37.564Z,12.2
2017-10-21T10:22:39.266Z,11.4
2017-10-21T10:23:40.957Z,11.1
2017-10-21T10:24:42.699Z,11.4
2017-10-21T10:25:44.361Z,13.1
2017-10-21T10:26:46.033Z,11.4
2017-10-21T10:27:47.731Z,11.0
2017-10-21T10:28:49.387Z,10.0
2017-10-21T10:29:51.095Z,9.1
2017-10-21T10:30:52.794Z,8.7
2017-10-21T10:31:54.461Z,8.9
2017-10-21T10:32:56.134Z,8.0
2017-10-21T10:33:57.803Z,8.3
2017-10-21T10:34:59.498Z,8.7
2017-10-21T10:36:01.193Z,8.0
2017-10-21T10:37:02.852Z,8.3
2017-10-21T10:38:04.521Z,7.9
2017-10-21T10:39:06.186Z,7.3
2017-10-21T10:40:07.843Z,7.2
2017-10-21T10:41:09.500Z,7.8
2017-10-21T10:42:11.161Z,8.9
2017-10-21T10:43:12.823Z,8.9
2017-10-21T10:44:14.502Z,10.3
2017-10-21T10:45:16.169Z,8.8
2017-10-21T10:46:17.831Z,7.7
2017-10-21T10:47:19.520Z,6.7
2017-10-21T10:48:21.185Z,7.7
2017-10-21T10:49:22.847Z,8.4
2017-10-21T10:50:24.525Z,7.7
2017-10-21T10:51:26.194Z,7.9
2017-10-21T10:52:27.850Z,7.9
2017-10-21T10:53:29.511Z,8.2
2017-10-21T10:54:31.171Z,7.4
2017-10-21T10:55:32.827Z,7.4
2017-10-21T10:56:34.497Z,7.4
2017-10-21T10:57:36.164Z,7.8
2017-10-21T10:58:37.895Z,7.7
2017-10-21T10:59:39.553Z,8.0
2017-10-21T11:00:41.215Z,6.8
2017-10-21T11:01:42.878Z,7.6
2017-10-21T11:02:44.567Z,7.5
2017-10-21T11:03:46.235Z,7.6
2017-10-21T11:04:47.911Z,7.7
2017-10-21T11:05:49.571Z,6.7
2017-10-21T11:06:51.236Z,7.3
2017-10-21T11:07:52.907Z,8.5
2017-10-21T11:08:54.598Z,6.8
2017-10-21T11:09:56.265Z,6.4
2017-10-21T11:10:57.943Z,6.8
2017-10-21T11:11:59.607Z,5.9
2017-10-21T11:14:10.966Z,6.0
2017-10-21T11:15:12.630Z,6.2
2017-10-21T11:16:14.320Z,6.1
2017-10-21T11:17:16.027Z,6.4
2017-10-21T11:18:17.690Z,6.4
2017-10-21T11:19:20.224Z,6.6
2017-10-21T11:20:31.623Z,6.0
2017-10-21T11:21:35.048Z,5.7
2017-10-21T11:22:36.665Z,6.7
2017-10-21T11:23:39.461Z,7.4
2017-10-21T11:24:43.745Z,7.1
2017-10-21T11:25:45.471Z,7.2
2017-10-21T11:26:47.253Z,7.2
2017-10-21T11:27:48.970Z,6.5
2017-10-21T11:28:50.719Z,6.8
2017-10-21T11:29:52.526Z,6.4
2017-10-21T11:30:54.251Z,7.7
2017-10-21T11:31:56.029Z,6.7
2017-10-21T11:32:57.784Z,6.1
2017-10-21T11:33:59.563Z,6.0
2017-10-21T11:35:01.397Z,6.7
2017-10-21T11:36:03.147Z,7.4
2017-10-21T11:37:04.924Z,7.7
2017-10-21T11:38:06.667Z,7.9
2017-10-21T11:39:08.377Z,7.5
2017-10-21T11:40:10.197Z,7.7
2017-10-21T11:41:12.000Z,7.5
2017-10-21T11:42:13.723Z,6.4
2017-10-21T11:43:15.505Z,7.0
2017-10-21T11:44:17.249Z,6.9
2017-10-21T11:45:19.105Z,6.6
2017-10-21T11:46:20.807Z,7.5
2017-10-21T11:47:22.523Z,7.4
2017-10-21T11:48:24.288Z,7.9
2017-10-21T11:49:26.024Z,7.5
2017-10-21T11:50:27.737Z,8.1
2017-10-21T11:51:29.476Z,9.1
2017-10-21T11:52:31.218Z,8.7
2017-10-21T11:53:32.991Z,10.7
2017-10-21T11:54:34.715Z,9.9
2017-10-21T11:55:36.429Z,9.0
2017-10-21T11:56:39.377Z,10.3
2017-10-21T11:57:41.056Z,10.1
2017-10-21T11:58:43.151Z,13.0
2017-10-21T11:59:44.861Z,14.3
2017-10-21T12:00:46.634Z,14.3
2017-10-21T12:01:48.425Z,12.0
2017-10-21T12:02:50.299Z,10.3
2017-10-21T12:03:53.942Z,11.4
2017-10-21T12:04:55.745Z,11.2
2017-10-21T12:05:57.548Z,11.1
2017-10-21T12:06:59.450Z,11.8
2017-10-21T12:08:01.261Z,10.2
2017-10-21T12:09:03.272Z,9.7
2017-10-21T12:10:05.046Z,10.2
2017-10-21T12:11:07.345Z,9.5
2017-10-21T12:12:10.536Z,10.0
2017-10-21T12:13:13.674Z,9.6
2017-10-21T12:14:16.492Z,10.6
2017-10-21T12:15:18.113Z,9.6
2017-10-21T12:16:20.007Z,10.7
2017-10-21T12:17:22.006Z,10.5
2017-10-21T12:18:23.882Z,11.4
2017-10-21T12:19:25.654Z,11.2
2017-10-21T12:20:27.393Z,10.9
2017-10-21T12:21:29.575Z,10.7
2017-10-21T12:22:31.152Z,10.8
2017-10-21T12:23:32.932Z,10.3
2017-10-21T12:24:34.686Z,10.8
2017-10-21T12:25:37.490Z,10.8
2017-10-21T12:26:39.461Z,11.1
2017-10-21T12:27:42.160Z,10.9
2017-10-21T12:28:43.893Z,10.9
2017-10-21T12:29:45.617Z,11.1
2017-10-21T12:30:48.600Z,12.0
2017-10-21T12:31:50.222Z,12.4
2017-10-21T12:32:51.960Z,11.1
2017-10-21T12:33:53.763Z,10.7
2017-10-21T12:34:55.694Z,10.9
2017-10-21T12:35:57.427Z,11.6
2017-10-21T12:36:59.235Z,10.2
2017-10-21T12:38:01.013Z,10.2
2017-10-21T12:39:02.763Z,11.1
2017-10-21T12:40:04.578Z,11.9
2017-10-21T12:41:06.479Z,12.2
2017-10-21T12:42:08.313Z,12.2
2017-10-21T12:43:10.082Z,11.2
2017-10-21T12:44:11.953Z,9.5
2017-10-21T12:45:13.811Z,10.7
2017-10-21T12:46:15.575Z,9.5
2017-10-21T12:47:17.460Z,9.8
2017-10-21T12:48:19.206Z,9.7
2017-10-21T12:49:20.908Z,9.5
2017-10-21T12:50:22.716Z,9.4
2017-10-21T12:51:24.452Z,10.2
2017-10-21T12:52:26.166Z,9.6
2017-10-21T12:53:27.888Z,9.5
2017-10-21T12:54:29.742Z,9.3
2017-10-21T12:55:31.498Z,9.7
2017-10-21T12:56:33.345Z,9.8
2017-10-21T12:57:35.057Z,9.9
2017-10-21T12:58:36.850Z,8.8
2017-10-21T12:59:38.599Z,8.6
2017-10-21T13:00:40.371Z,9.0
2017-10-21T13:01:42.094Z,9.1
2017-10-21T13:02:43.868Z,9.6
2017-10-21T13:03:45.579Z,9.2
2017-10-21T13:04:47.311Z,9.5
2017-10-21T13:05:49.026Z,11.7
2017-10-21T13:06:50.717Z,10.2
2017-10-21T13:07:52.390Z,8.1
2017-10-21T13:08:54.124Z,8.1
2017-10-21T13:09:55.824Z,8.1
2017-10-21T13:10:57.504Z,8.0
2017-10-21T13:11:59.169Z,6.3
2017-10-21T13:13:00.904Z,7.3
2017-10-21T13:14:02.553Z,7.0
2017-10-21T13:15:04.268Z,6.8
2017-10-21T13:16:06.508Z,9.0
2017-10-21T13:17:08.290Z,7.3
2017-10-21T13:18:10.119Z,5.9
2017-10-21T13:19:11.877Z,6.5
2017-10-21T13:20:13.681Z,6.0
2017-10-21T13:21:15.413Z,5.7
2017-10-21T13:22:17.152Z,6.7
2017-10-21T13:23:19.008Z,6.7
2017-10-21T13:24:20.776Z,7.4
2017-10-21T13:25:22.555Z,7.1
2017-10-21T13:26:24.503Z,6.8
2017-10-21T13:27:26.365Z,5.4
2017-10-21T13:28:37.796Z,5.2
2017-10-21T13:29:39.582Z,6.0
2017-10-21T13:30:41.380Z,6.0
2017-10-21T13:31:43.125Z,5.8
2017-10-21T13:32:44.878Z,5.5
2017-10-21T13:33:46.688Z,6.7
2017-10-21T13:34:50.033Z,6.0
2017-10-21T13:35:52.863Z,5.0
2017-10-21T13:36:54.654Z,6.1
2017-10-21T13:37:56.613Z,6.0
2017-10-21T13:38:58.414Z,6.1
2017-10-21T13:40:00.141Z,6.2
2017-10-21T13:41:02.004Z,5.7
2017-10-21T13:42:03.704Z,6.4
2017-10-21T13:43:05.479Z,6.2
2017-10-21T13:44:07.427Z,5.6
2017-10-21T13:45:09.243Z,6.1
2017-10-21T13:46:11.008Z,6.0
2017-10-21T13:47:12.773Z,6.4
2017-10-21T13:48:14.586Z,6.3
2017-10-21T13:49:16.293Z,6.7
2017-10-21T13:50:18.774Z,6.1
2017-10-21T13:51:20.551Z,6.7
2017-10-21T13:52:22.359Z,7.0
2017-10-21T13:53:24.167Z,6.5
2017-10-21T13:54:25.943Z,7.0
2017-10-21T13:55:27.697Z,10.2
2017-10-21T14:01:42.565Z,5.1
2017-10-21T14:02:44.887Z,5.9
2017-10-21T14:03:48.791Z,6.1
2017-10-21T14:04:50.622Z,5.8
2017-10-21T14:05:52.520Z,5.8
2017-10-21T14:06:54.322Z,5.9
2017-10-21T14:07:56.111Z,6.1
2017-10-21T14:08:57.821Z,5.7
2017-10-21T14:09:59.616Z,5.6
2017-10-21T14:11:01.409Z,5.2
2017-10-21T14:12:03.241Z,5.2
2017-10-21T14:13:04.988Z,5.7
2017-10-21T14:14:06.732Z,5.4
2017-10-21T14:15:08.671Z,5.7
2017-10-21T14:16:10.562Z,5.8
2017-10-21T14:17:12.383Z,6.2
2017-10-21T14:18:15.409Z,5.8
2017-10-21T14:19:19.501Z,4.6
2017-10-21T14:20:23.748Z,5.2
2017-10-21T14:21:25.361Z,5.5
2017-10-21T14:22:27.122Z,4.6
2017-10-21T14:23:28.914Z,4.8
2017-10-21T14:24:30.701Z,5.1
2017-10-21T14:25:32.335Z,4.3
2017-10-21T14:26:34.095Z,4.9
2017-10-21T14:27:36.295Z,6.1
2017-10-21T14:28:38.442Z,5.9
2017-10-21T14:29:40.271Z,5.4